Time;durP1;ratioP1;P1;durP2;ratioP2;P2;SDS_P1;SDS_P2;PMS_P1;PMS_P2;Temp;Humidity;BMP_temperature;BMP_pressure;BME280_temperature;BME280_humidity;BME280_pressure;Samples;Min_cycle;Max_cycle;Signal;HPM_P1;HPM_P2
2022/07/29 00:00:21;;;;;;;6.47;1.60;;;;;;;17.68;56.34;101488.41;5261275;28;20112;-72
2022/07/29 00:02:53;;;;;;;3.63;1.70;;;;;;;17.63;56.57;101475.38;5263201;28;20032;-72
2022/07/29 00:05:24;;;;;;;6.97;2.20;;;;;;;17.62;56.37;101491.25;5261995;28;20043;-72
2022/07/29 00:07:55;;;;;;;8.00;1.63;;;;;;;17.57;56.78;101488.75;5262336;28;20124;-72
2022/07/29 00:10:27;;;;;;;4.77;2.00;;;;;;;17.49;56.63;101481.06;5262364;28;20036;-72
2022/07/29 00:12:58;;;;;;;6.23;2.40;;;;;;;17.48;56.87;101484.63;5262351;28;20036;-72
2022/07/29 00:15:30;;;;;;;3.27;1.80;;;;;;;17.46;56.93;101482.94;5262296;28;20021;-72
2022/07/29 00:18:01;;;;;;;7.03;1.90;;;;;;;17.51;57.07;101475.75;5262237;28;20071;-72
2022/07/29 00:20:32;;;;;;;7.43;1.90;;;;;;;17.53;57.27;101478.34;5262210;28;20422;-73
2022/07/29 00:23:04;;;;;;;5.87;2.07;;;;;;;17.45;57.49;101479.44;5262246;28;20060;-72
2022/07/29 00:25:35;;;;;;;2.10;1.40;;;;;;;17.43;57.62;101483.88;5261949;28;20035;-72
2022/07/29 00:28:06;;;;;;;4.73;2.00;;;;;;;17.45;57.46;101481.19;5262380;28;20025;-72
2022/07/29 00:30:38;;;;;;;5.77;2.00;;;;;;;17.40;57.19;101486.59;5261694;28;20075;-72
2022/07/29 00:33:09;;;;;;;10.87;4.13;;;;;;;17.50;57.70;101485.44;5262794;28;20021;-72
2022/07/29 00:35:44;;;;;;;7.00;1.93;;;;;;;17.62;57.82;101486.81;5262026;28;20103;-73
2022/07/29 00:38:17;;;;;;;4.32;2.10;;;;;;;17.68;58.65;101501.59;5261930;28;20021;-72
2022/07/29 00:40:49;;;;;;;4.97;2.05;;;;;;;17.79;57.73;101495.97;5261907;28;20029;-72
2022/07/29 00:43:20;;;;;;;8.63;2.10;;;;;;;17.76;58.03;101507.50;5262066;28;20029;-73
2022/07/29 00:45:52;;;;;;;4.13;1.80;;;;;;;17.78;58.12;101516.22;5261880;28;20029;-73
2022/07/29 00:48:23;;;;;;;5.57;1.83;;;;;;;17.82;58.14;101517.84;5275219;28;20044;-73
2022/07/29 00:50:57;;;;;;;3.93;1.97;;;;;;;17.86;57.15;101535.28;5282545;28;20035;-73
2022/07/29 00:53:30;;;;;;;4.78;1.85;;;;;;;17.67;57.00;101542.06;5282643;28;20028;-73
2022/07/29 00:56:02;;;;;;;9.02;2.03;;;;;;;17.71;56.96;101532.25;5282358;28;20089;-73
2022/07/29 00:58:33;;;;;;;5.05;2.00;;;;;;;17.60;57.78;101501.84;5282972;28;20025;-73
2022/07/29 01:01:04;;;;;;;4.73;2.13;;;;;;;17.55;58.29;101492.31;5283046;28;20025;-73
2022/07/29 01:03:36;;;;;;;6.83;2.13;;;;;;;17.64;59.29;101495.53;5282456;28;20082;-73
2022/07/29 01:06:08;;;;;;;4.40;1.80;;;;;;;17.47;58.82;101482.91;5282663;28;20105;-72
2022/07/29 01:08:40;;;;;;;5.43;2.45;;;;;;;17.38;60.10;101469.97;5282716;28;20070;-73
2022/07/29 01:11:12;;;;;;;4.85;1.95;;;;;;;17.23;62.18;101465.19;5282495;28;20028;-73
2022/07/29 01:13:45;;;;;;;;;;;;;;;17.45;58.98;101460.13;5283046;28;20406;-72
2022/07/29 01:16:25;;;;;;;11.63;1.77;;;;;;;17.16;61.80;101455.72;5282032;28;19927;-72
2022/07/29 01:19:06;;;;;;;4.75;2.10;;;;;;;17.07;63.95;101446.34;5282414;28;20056;-72
2022/07/29 01:21:52;;;;;;;6.20;2.30;;;;;;;16.86;64.71;101445.19;5282730;28;20107;-72
2022/07/29 01:24:46;;;;;;;5.45;2.50;;;;;;;16.83;65.76;101443.47;5282493;28;20029;-73
2022/07/29 01:27:22;;;;;;;6.57;2.60;;;;;;;16.72;68.55;101421.84;5272102;28;20028;-72
2022/07/29 01:29:59;;;;;;;7.43;2.50;;;;;;;16.88;68.57;101417.03;5282649;28;20394;-73
2022/07/29 01:32:36;;;;;;;5.78;2.92;;;;;;;16.73;68.73;101400.75;5282823;28;20029;-73
2022/07/29 01:35:24;;;;;;;6.70;3.50;;;;;;;16.55;68.77;101391.59;5281966;28;20442;-72
2022/07/29 01:38:08;;;;;;;8.50;3.47;;;;;;;16.54;68.54;101392.50;5282477;28;20035;-73
2022/07/29 01:41:09;;;;;;;5.97;3.53;;;;;;;16.46;69.51;101393.63;5282843;28;20096;-73
2022/07/29 01:44:12;;;;;;;5.90;2.90;;;;;;;16.33;69.20;101382.56;5286070;28;20107;-73
2022/07/29 01:46:50;;;;;;;4.75;2.55;;;;;;;16.24;70.08;101381.03;5280123;28;20036;-73
2022/07/29 01:49:27;;;;;;;5.32;3.00;;;;;;;16.26;70.76;101383.63;5286571;28;20032;-73
2022/07/29 01:52:05;;;;;;;8.05;2.70;;;;;;;16.17;70.21;101393.50;5285925;28;20113;-73
2022/07/29 01:54:45;;;;;;;4.25;2.60;;;;;;;16.38;70.67;101402.56;5285847;28;20028;-74
2022/07/29 01:57:20;;;;;;;7.15;2.65;;;;;;;16.27;71.06;101414.31;5286053;28;20024;-73
2022/07/29 01:59:53;;;;;;;7.22;3.10;;;;;;;16.19;70.99;101411.88;5267866;28;20087;-74
2022/07/29 02:02:25;;;;;;;;;;;;;;;16.32;68.08;101409.78;5268721;28;20036;-73
2022/07/29 02:04:59;;;;;;;4.75;2.20;;;;;;;16.18;71.04;101411.00;5285989;28;20266;-74
2022/07/29 02:07:33;;;;;;;7.20;2.53;;;;;;;16.29;70.61;101408.06;5268485;28;20016;-74
2022/07/29 02:10:06;;;;;;;9.00;2.97;;;;;;;16.11;71.56;101398.91;5286683;28;20470;-74
2022/07/29 02:12:39;;;;;;;3.92;2.40;;;;;;;16.09;72.34;101390.22;5268450;28;20374;-74
2022/07/29 02:15:11;;;;;;;7.05;2.53;;;;;;;15.97;72.32;101398.41;5285453;28;20059;-74
2022/07/29 02:17:58;;;;;;;4.78;2.45;;;;;;;16.02;72.38;101396.53;5285673;28;20032;-74
2022/07/29 02:20:30;;;;;;;6.78;2.55;;;;;;;15.98;72.04;101393.09;5285008;28;20024;-74
2022/07/29 02:23:03;;;;;;;6.82;2.45;;;;;;;16.04;72.30;101392.09;5285268;28;20032;-73
2022/07/29 02:25:34;;;;;;;6.95;2.65;;;;;;;16.01;72.38;101392.19;5284719;28;20120;-73
2022/07/29 02:28:07;;;;;;;6.27;2.47;;;;;;;15.92;72.45;101387.16;5285831;28;20422;-73
2022/07/29 02:30:41;;;;;;;7.38;2.85;;;;;;;15.98;72.32;101387.00;5285086;28;20028;-73
2022/07/29 02:33:15;;;;;;;10.05;3.20;;;;;;;16.04;72.75;101397.34;5267030;28;20070;-73
2022/07/29 02:35:48;;;;;;;5.15;2.47;;;;;;;15.97;73.16;101393.16;5284926;28;20024;-72
2022/07/29 02:41:16;;;;;;;5.90;2.60;;;;;;;16.02;72.58;101386.88;5285982;28;20444;-73
2022/07/29 02:43:50;;;;;;;6.15;2.83;;;;;;;15.93;72.42;101389.75;5285154;28;20020;-73
2022/07/29 02:46:30;;;;;;;10.18;2.60;;;;;;;15.94;73.00;101380.97;5284822;28;20348;-72
2022/07/29 02:49:29;;;;;;;4.82;2.58;;;;;;;15.87;73.09;101387.25;5284597;28;20044;-72
2022/07/29 02:52:14;;;;;;;6.10;2.70;;;;;;;15.92;73.49;101382.75;5284273;28;20440;-72
2022/07/29 02:54:54;;;;;;;4.43;2.42;;;;;;;15.97;73.41;101393.16;5284927;28;20028;-72
2022/07/29 02:57:36;;;;;;;6.32;2.70;;;;;;;15.99;73.31;101394.84;5266767;28;20359;-73
2022/07/29 03:00:09;;;;;;;7.60;2.90;;;;;;;16.06;74.17;101405.22;5284500;28;20077;-72
2022/07/29 03:02:44;;;;;;;7.13;2.83;;;;;;;15.90;73.09;101396.84;5285007;28;20024;-72
2022/07/29 03:05:19;;;;;;;6.10;2.90;;;;;;;16.06;73.96;101394.69;5284377;28;20016;-72
2022/07/29 03:08:00;;;;;;;6.35;2.60;;;;;;;15.94;73.19;101406.38;5284045;28;20410;-73
2022/07/29 03:10:31;;;;;;;6.57;2.97;;;;;;;15.99;73.21;101402.72;5284366;28;20021;-73
2022/07/29 03:13:04;;;;;;;10.20;3.50;;;;;;;15.86;72.96;101390.81;5284699;28;20467;-73
2022/07/29 03:15:37;;;;;;;10.20;2.95;;;;;;;15.82;73.23;101402.28;5284143;28;20332;-73
2022/07/29 03:18:09;;;;;;;9.32;2.90;;;;;;;15.76;73.15;101399.78;5284037;28;20345;-73
2022/07/29 03:20:41;;;;;;;8.95;3.30;;;;;;;15.72;73.57;101398.13;5284258;28;20086;-73
2022/07/29 03:23:19;;;;;;;5.90;2.83;;;;;;;15.70;73.30;101387.66;5283950;28;20459;-73
2022/07/29 03:25:51;;;;;;;6.88;2.80;;;;;;;15.62;73.41;101389.63;5283959;28;20103;-72
2022/07/29 03:28:23;;;;;;;8.10;3.20;;;;;;;15.65;73.53;101389.53;5283602;28;20107;-73
2022/07/29 03:30:55;;;;;;;7.50;3.53;;;;;;;15.57;73.53;101392.34;5283741;28;20042;-73
2022/07/29 03:33:26;;;;;;;9.57;3.00;;;;;;;15.64;73.91;101396.53;5283950;28;20119;-73
2022/07/29 03:35:58;;;;;;;7.07;3.10;;;;;;;15.56;74.45;101390.63;5283628;28;20021;-73
2022/07/29 03:38:33;;;;;;;6.53;2.80;;;;;;;15.66;74.52;101393.88;5283608;28;20038;-73
2022/07/29 03:41:11;;;;;;;7.07;3.00;;;;;;;15.59;74.44;101398.44;5283930;28;20337;-73
2022/07/29 03:43:43;;;;;;;6.25;2.67;;;;;;;15.59;75.26;101394.94;5283547;28;20069;-73
2022/07/29 03:46:17;;;;;;;6.15;3.00;;;;;;;15.52;74.82;101395.97;5283655;28;20363;-73
2022/07/29 03:48:52;;;;;;;4.93;2.58;;;;;;;15.52;75.19;101402.13;5283509;28;20170;-72
2022/07/29 03:51:24;;;;;;;6.93;2.97;;;;;;;15.40;74.70;101392.72;5283452;28;20032;-73
2022/07/29 03:53:56;;;;;;;4.88;2.55;;;;;;;15.37;75.16;101386.69;5284016;28;20312;-73
2022/07/29 03:56:29;;;;;;;4.70;2.55;;;;;;;15.30;74.70;101386.81;5282939;28;20032;-73
2022/07/29 03:59:01;;;;;;;5.75;3.05;;;;;;;15.24;75.18;101384.34;5283521;28;20047;-73
2022/07/29 04:01:33;;;;;;;;;;;;;;;15.37;73.15;101392.81;5283742;28;20455;-73
2022/07/29 04:04:05;;;;;;;12.30;2.72;;;;;;;15.19;74.98;101391.47;5282358;28;19908;-73
2022/07/29 04:06:44;;;;;;;7.47;3.13;;;;;;;15.17;75.11;101392.41;5283419;28;20028;-73
2022/07/29 04:09:15;;;;;;;4.50;2.40;;;;;;;15.11;75.23;101385.53;5283486;28;20435;-73
2022/07/29 04:11:47;;;;;;;6.77;2.73;;;;;;;15.22;75.49;101383.50;5283190;28;20111;-73
2022/07/29 04:14:18;;;;;;;4.00;2.83;;;;;;;15.11;75.35;101372.38;5283072;28;20035;-73
2022/07/29 04:16:50;;;;;;;5.63;2.97;;;;;;;15.29;75.37;101371.09;5283168;28;20025;-74
2022/07/29 04:19:21;;;;;;;4.50;2.80;;;;;;;15.23;75.12;101374.75;5283167;28;20070;-73
2022/07/29 04:21:52;;;;;;;6.20;2.87;;;;;;;15.37;75.36;101382.28;5283585;28;20028;-73
2022/07/29 04:24:24;;;;;;;6.10;2.77;;;;;;;15.40;76.16;101376.13;5265013;28;20029;-74
2022/07/29 04:26:55;;;;;;;9.43;3.20;;;;;;;15.32;75.91;101373.66;5283289;28;20055;-74
2022/07/29 04:29:26;;;;;;;4.70;2.77;;;;;;;15.36;76.05;101379.69;5283344;28;20036;-74
2022/07/29 04:31:58;;;;;;;5.77;2.60;;;;;;;15.34;75.60;101378.88;5283513;28;20112;-74
2022/07/29 04:34:29;;;;;;;5.40;2.60;;;;;;;15.28;75.38;101374.66;5282916;28;20039;-74
2022/07/29 04:37:00;;;;;;;11.13;3.03;;;;;;;15.23;75.79;101373.88;5283154;28;20017;-74
2022/07/29 04:39:32;;;;;;;18.80;3.00;;;;;;;15.16;76.03;101380.16;5282849;28;20111;-74
2022/07/29 04:42:03;;;;;;;6.83;2.70;;;;;;;15.12;76.40;101379.38;5282630;28;20032;-74
2022/07/29 04:44:35;;;;;;;7.20;2.90;;;;;;;15.11;76.30;101398.66;5282712;28;20155;-75
2022/07/29 04:47:07;;;;;;;9.10;2.70;;;;;;;15.14;76.60;101416.97;5282642;28;20048;-74
2022/07/29 04:49:39;;;;;;;4.85;3.08;;;;;;;15.23;76.72;101419.41;5283486;28;20031;-74
2022/07/29 04:52:10;;;;;;;6.90;3.00;;;;;;;15.28;76.77;101412.28;5282636;28;20467;-74
2022/07/29 04:54:41;;;;;;;5.90;3.10;;;;;;;15.28;76.20;101411.41;5265624;28;20394;-74
2022/07/29 04:57:13;;;;;;;6.97;3.43;;;;;;;15.23;76.26;101419.41;5282857;28;20115;-74
2022/07/29 04:59:44;;;;;;;5.77;3.07;;;;;;;15.28;76.32;101425.41;5282812;28;20024;-75
2022/07/29 05:02:16;;;;;;;6.83;3.13;;;;;;;15.24;76.29;101433.38;5282845;28;20028;-74
2022/07/29 05:04:47;;;;;;;7.93;3.57;;;;;;;15.20;76.62;101435.22;5282747;28;20130;-74
2022/07/29 05:07:19;;;;;;;4.77;2.97;;;;;;;15.38;77.66;101449.72;5282442;28;20034;-74
2022/07/29 05:09:50;;;;;;;7.07;3.23;;;;;;;15.46;77.68;101457.44;5265546;28;20259;-74
2022/07/29 05:12:23;;;;;;;5.00;3.17;;;;;;;15.45;76.73;101450.44;5282677;28;20025;-74
2022/07/29 05:14:54;;;;;;;;;;;;;;;15.59;75.27;101444.88;5283733;28;20039;-74
2022/07/29 05:17:26;;;;;;;6.72;2.90;;;;;;;15.57;77.20;101451.91;5286652;28;19998;-75
2022/07/29 05:19:57;;;;;;;5.60;2.97;;;;;;;15.65;78.16;101450.00;5287240;28;20100;-74
2022/07/29 05:22:29;;;;;;;10.47;3.23;;;;;;;15.53;76.75;101440.59;5286650;28;20036;-74
2022/07/29 05:25:00;;;;;;;6.70;3.80;;;;;;;15.56;77.69;101448.41;5286447;28;20024;-75
2022/07/29 05:27:31;;;;;;;6.80;3.03;;;;;;;15.51;76.96;101455.56;5286593;28;20028;-74
2022/07/29 05:30:03;;;;;;;4.60;3.50;;;;;;;15.48;76.92;101453.00;5286550;28;20031;-73
2022/07/29 05:32:35;;;;;;;8.10;3.38;;;;;;;15.46;77.37;101450.41;5286235;28;20067;-74
2022/07/29 05:35:06;;;;;;;5.87;3.13;;;;;;;15.47;77.41;101451.25;5286525;28;20071;-74
2022/07/29 05:37:38;;;;;;;3.97;3.13;;;;;;;15.42;77.31;101439.97;5286211;28;20039;-74
2022/07/29 05:40:10;;;;;;;7.80;3.90;;;;;;;15.41;78.07;101438.28;5268397;28;20112;-74
2022/07/29 05:42:41;;;;;;;19.77;4.03;;;;;;;15.54;78.53;101444.97;5286288;28;20469;-74
2022/07/29 05:45:12;;;;;;;7.87;3.60;;;;;;;15.44;77.84;101446.94;5286165;28;20025;-74
2022/07/29 05:47:45;;;;;;;7.17;3.47;;;;;;;15.36;78.12;101445.38;5285742;28;20060;-74
2022/07/29 05:50:16;;;;;;;8.60;3.83;;;;;;;15.44;78.18;101449.56;5286245;28;20035;-74
2022/07/29 05:52:48;;;;;;;5.87;3.60;;;;;;;15.53;77.57;101451.13;5286691;28;20115;-74
2022/07/29 05:55:19;;;;;;;8.73;4.53;;;;;;;15.61;77.31;101445.69;5286670;28;20028;-74
2022/07/29 05:57:52;;;;;;;10.23;4.80;;;;;;;15.61;77.79;101440.44;5286389;28;20367;-75
2022/07/29 06:00:23;;;;;;;7.25;3.80;;;;;;;15.57;77.87;101441.38;5287104;28;20036;-75
2022/07/29 06:02:55;;;;;;;6.60;4.27;;;;;;;15.58;77.62;101433.47;5286426;28;20056;-75
2022/07/29 06:05:26;;;;;;;6.27;4.33;;;;;;;15.63;78.03;101446.50;5269672;28;20032;-75
2022/07/29 06:07:57;;;;;;;7.13;4.10;;;;;;;15.62;77.95;101442.19;5285907;28;20063;-74
2022/07/29 06:10:29;;;;;;;7.67;3.80;;;;;;;15.53;77.64;101439.75;5285699;28;20062;-74
2022/07/29 06:13:00;;;;;;;7.40;4.73;;;;;;;15.55;78.03;101446.69;5285495;28;20375;-74
2022/07/29 06:15:32;;;;;;;6.83;4.77;;;;;;;15.51;77.58;101445.03;5286243;28;20525;-74
2022/07/29 06:18:03;;;;;;;7.23;4.23;;;;;;;15.57;77.70;101451.91;5285914;28;20032;-75
2022/07/29 06:20:35;;;;;;;9.00;4.80;;;;;;;15.72;78.46;101453.34;5286476;28;20029;-76
2022/07/29 06:23:06;;;;;;;9.73;4.05;;;;;;;15.73;77.11;101450.66;5285438;28;20048;-75
2022/07/29 06:25:40;;;;;;;8.33;4.43;;;;;;;15.74;77.17;101448.91;5285675;28;20095;-75
2022/07/29 06:28:12;;;;;;;8.23;4.70;;;;;;;15.79;77.08;101452.31;5284812;28;20402;-75
2022/07/29 06:30:43;;;;;;;7.55;4.47;;;;;;;15.87;77.09;101445.09;5285665;28;20021;-75
2022/07/29 06:33:18;;;;;;;6.67;4.10;;;;;;;15.88;76.94;101436.31;5285855;28;20024;-75
2022/07/29 06:35:50;;;;;;;7.50;4.82;;;;;;;15.87;77.03;101445.09;5285429;28;20032;-75
2022/07/29 06:38:22;;;;;;;9.10;4.93;;;;;;;15.88;77.00;101448.63;5285726;28;20082;-75
2022/07/29 06:41:05;;;;;;;8.67;4.33;;;;;;;15.84;76.56;101453.06;5285418;28;20032;-75
2022/07/29 06:43:41;;;;;;;10.82;5.07;;;;;;;15.89;76.70;101456.47;5285139;28;20067;-75
2022/07/29 06:46:19;;;;;;;6.28;4.28;;;;;;;16.02;77.66;101455.25;5285741;28;20432;-76
2022/07/29 06:48:51;;;;;;;7.32;4.45;;;;;;;16.10;76.75;101454.19;5285436;28;20515;-75
2022/07/29 06:51:22;;;;;;;8.25;5.10;;;;;;;16.11;76.39;101454.16;5285628;28;20055;-75
2022/07/29 06:53:54;;;;;;;8.33;4.43;;;;;;;16.13;76.59;101462.88;5285095;28;20033;-75
2022/07/29 06:56:25;;;;;;;11.77;5.17;;;;;;;16.12;76.29;101461.16;5284982;28;20025;-74
2022/07/29 06:58:57;;;;;;;9.77;4.80;;;;;;;16.12;76.52;101468.19;5284592;28;20024;-74
2022/07/29 07:01:28;;;;;;;5.37;4.23;;;;;;;16.08;76.12;101470.00;5284927;28;20410;-75
2022/07/29 07:03:59;;;;;;;7.97;4.37;;;;;;;16.16;75.59;101472.44;5284763;28;20028;-75
2022/07/29 07:06:31;;;;;;;10.47;5.13;;;;;;;16.30;75.81;101465.06;5284632;28;20022;-75
2022/07/29 07:09:02;;;;;;;9.50;5.07;;;;;;;16.39;74.71;101466.63;5285458;28;20086;-74
2022/07/29 07:11:34;;;;;;;10.30;4.87;;;;;;;16.48;75.07;101468.97;5284699;28;20119;-74
2022/07/29 07:14:05;;;;;;;8.93;4.17;;;;;;;16.61;74.09;101473.91;5284668;28;20032;-75
2022/07/29 07:16:37;;;;;;;7.17;4.60;;;;;;;16.77;75.05;101472.59;5284673;28;20060;-75
2022/07/29 07:19:08;;;;;;;5.87;4.30;;;;;;;16.77;73.61;101478.72;5285242;28;20024;-75
2022/07/29 07:21:40;;;;;;;8.60;4.80;;;;;;;16.84;74.16;101481.19;5266870;28;20024;-75
2022/07/29 07:24:11;;;;;;;6.20;4.37;;;;;;;16.88;72.67;101482.88;5284586;28;20029;-74
2022/07/29 07:26:42;;;;;;;9.20;4.57;;;;;;;16.96;73.43;101483.50;5284459;28;20047;-74
2022/07/29 07:29:14;;;;;;;10.53;4.63;;;;;;;17.20;72.24;101483.72;5284336;28;20028;-74
2022/07/29 07:31:45;;;;;;;9.47;4.30;;;;;;;17.31;71.31;101484.28;5284387;28;20029;-74
2022/07/29 07:34:17;;;;;;;8.47;4.90;;;;;;;17.20;70.85;101475.81;5284188;28;20024;-74
2022/07/29 07:36:48;;;;;;;9.67;4.57;;;;;;;17.36;70.90;101479.72;5266537;28;20036;-73
2022/07/29 07:39:19;;;;;;;8.57;4.17;;;;;;;17.56;69.65;101472.97;5283908;28;20078;-74
2022/07/29 07:41:51;;;;;;;9.97;4.57;;;;;;;17.71;69.73;101477.78;5283887;28;20103;-74
2022/07/29 07:44:22;;;;;;;6.15;3.88;;;;;;;17.90;69.49;101477.22;5284268;28;20035;-74
2022/07/29 07:46:54;;;;;;;9.83;4.37;;;;;;;18.08;68.33;101478.38;5284011;28;20040;-75
2022/07/29 07:49:25;;;;;;;5.93;4.23;;;;;;;17.90;67.59;101487.75;5284545;28;20028;-74
2022/07/29 07:51:57;;;;;;;8.33;4.03;;;;;;;18.21;67.82;101483.19;5284324;28;20087;-74
2022/07/29 07:54:28;;;;;;;10.50;4.13;;;;;;;18.37;69.61;101480.91;5265858;28;20033;-74
2022/07/29 07:57:00;;;;;;;8.83;3.83;;;;;;;18.51;66.87;101496.25;5283495;28;20029;-74
2022/07/29 07:59:31;;;;;;;7.38;4.20;;;;;;;18.67;67.67;101490.44;5284052;28;20048;-74
2022/07/29 08:02:03;;;;;;;7.33;4.10;;;;;;;18.61;66.51;101485.38;5283851;28;20031;-73
2022/07/29 08:04:35;;;;;;;8.18;4.65;;;;;;;18.60;65.38;101487.16;5265604;28;20039;-74
2022/07/29 08:07:09;;;;;;;5.93;4.30;;;;;;;18.70;65.99;101487.69;5283559;28;20055;-74
2022/07/29 08:09:40;;;;;;;10.35;5.07;;;;;;;18.84;65.89;101489.88;5265587;28;20032;-74
2022/07/29 08:12:11;;;;;;;6.53;4.00;;;;;;;18.88;65.73;101489.69;5283043;28;20094;-73
2022/07/29 08:14:43;;;;;;;6.37;4.20;;;;;;;18.95;65.27;101493.00;5283219;28;20414;-73
2022/07/29 08:17:14;;;;;;;7.80;4.67;;;;;;;19.01;64.12;101495.41;5266229;28;20083;-74
2022/07/29 08:19:48;;;;;;;8.77;4.00;;;;;;;19.19;65.75;101488.59;5283385;28;20056;-74
2022/07/29 08:22:19;;;;;;;9.40;4.68;;;;;;;19.39;65.63;101497.53;5283226;28;20467;-74
2022/07/29 08:24:55;;;;;;;11.63;4.30;;;;;;;19.55;63.39;101489.88;5283063;28;20021;-74
2022/07/29 08:27:28;;;;;;;10.65;4.57;;;;;;;19.54;62.71;101489.00;5283073;28;20451;-74
2022/07/29 08:30:00;;;;;;;8.85;4.07;;;;;;;19.57;62.82;101499.44;5283286;28;20020;-75
2022/07/29 08:32:31;;;;;;;11.63;4.87;;;;;;;19.77;63.74;101506.66;5283195;28;20162;-75
2022/07/29 08:35:03;;;;;;;6.33;3.97;;;;;;;19.99;62.55;101503.13;5282962;28;20115;-74
2022/07/29 08:37:34;;;;;;;9.90;4.00;;;;;;;19.95;60.43;101498.91;5282745;28;20464;-74
2022/07/29 08:40:06;;;;;;;5.27;3.70;;;;;;;20.12;61.86;101492.91;5282648;28;20032;-74
2022/07/29 08:42:37;;;;;;;6.68;3.95;;;;;;;20.08;60.36;101499.25;5282802;28;20031;-74
2022/07/29 08:45:09;;;;;;;10.43;4.30;;;;;;;20.14;60.91;101499.88;5283082;28;20399;-75
2022/07/29 08:47:44;;;;;;;7.05;3.30;;;;;;;20.27;58.60;101497.56;5282552;28;20044;-74
2022/07/29 08:50:15;;;;;;;8.00;3.72;;;;;;;20.41;58.98;101496.94;5285964;28;20107;-74
2022/07/29 08:52:48;;;;;;;6.37;3.97;;;;;;;20.41;60.50;101496.94;5289986;28;20456;-74
2022/07/29 08:55:20;;;;;;;7.18;4.15;;;;;;;20.50;61.98;101495.72;5289651;28;20050;-75
2022/07/29 08:57:54;;;;;;;7.18;3.92;;;;;;;20.92;59.39;101497.44;5289847;28;20040;-75
2022/07/29 09:00:26;;;;;;;8.55;4.93;;;;;;;20.89;57.62;101497.56;5289655;28;20032;-73
2022/07/29 09:02:59;;;;;;;9.38;4.60;;;;;;;21.02;58.72;101500.53;5289895;28;20028;-73
2022/07/29 09:05:32;;;;;;;5.43;3.80;;;;;;;21.07;57.67;101496.72;5289775;28;20035;-73
2022/07/29 09:08:04;;;;;;;16.98;5.22;;;;;;;20.82;56.37;101497.00;5289937;28;20031;-73
2022/07/29 09:10:36;;;;;;;7.85;4.65;;;;;;;20.86;57.29;101498.56;5289852;28;20024;-74
2022/07/29 09:13:08;;;;;;;8.40;3.80;;;;;;;21.21;59.77;101501.41;5290065;28;20028;-73
2022/07/29 09:15:39;;;;;;;6.15;3.78;;;;;;;21.16;58.81;101497.25;5289687;28;20036;-75
2022/07/29 09:18:10;;;;;;;8.20;3.50;;;;;;;21.45;58.27;101491.44;5289769;28;20166;-74
2022/07/29 09:24:03;;;;;;;8.65;3.70;;;;;;;21.84;56.78;101500.25;5290142;28;20024;-75
2022/07/29 09:26:38;;;;;;;8.68;4.10;;;;;;;22.06;54.49;101505.38;5289655;28;20028;-74
2022/07/29 09:29:12;;;;;;;7.70;3.85;;;;;;;22.08;55.57;101508.78;5290253;28;20320;-75
2022/07/29 09:31:45;;;;;;;9.15;4.13;;;;;;;21.86;53.46;101508.97;5289892;28;20028;-76
2022/07/29 09:34:31;;;;;;;6.57;3.75;;;;;;;22.04;54.88;101513.41;5289653;28;20032;-72
2022/07/29 09:37:03;;;;;;;6.93;3.70;;;;;;;22.04;55.90;101512.53;5290213;28;20048;-73
2022/07/29 09:39:36;;;;;;;10.30;3.73;;;;;;;22.24;53.02;101505.38;5289447;28;20021;-72
2022/07/29 09:42:07;;;;;;;5.60;3.22;;;;;;;22.35;50.63;101509.25;5289593;28;20270;-73
2022/07/29 09:44:48;;;;;;;14.70;4.43;;;;;;;22.47;51.64;101517.53;5289882;28;20352;-73
2022/07/29 09:47:21;;;;;;;9.40;4.28;;;;;;;22.65;52.57;101505.06;5289073;28;20040;-73
2022/07/29 09:49:59;;;;;;;7.43;3.08;;;;;;;22.94;52.10;101512.38;5289349;28;20041;-74
2022/07/29 09:52:31;;;;;;;7.45;3.40;;;;;;;23.20;50.57;101509.28;5289924;28;20448;-74
2022/07/29 09:55:10;;;;;;;9.97;3.60;;;;;;;23.36;49.73;101512.84;5289341;28;20078;-73
2022/07/29 09:57:42;;;;;;;4.30;2.67;;;;;;;24.05;48.20;101504.56;5289317;28;20159;-74
2022/07/29 10:00:17;;;;;;;7.25;3.42;;;;;;;25.54;46.77;101502.63;5289074;28;20119;-74
2022/07/29 10:02:49;;;;;;;7.63;3.42;;;;;;;26.28;41.73;101500.47;5285192;28;20111;-73
2022/07/29 10:05:27;;;;;;;4.07;2.57;;;;;;;27.55;43.79;101512.06;5286329;28;20023;-74
2022/07/29 10:07:59;;;;;;;6.03;3.30;;;;;;;28.62;38.75;101507.63;5290255;28;20020;-73
2022/07/29 10:10:36;;;;;;;11.70;3.13;;;;;;;28.96;36.30;101499.63;5288556;28;20455;-73
2022/07/29 10:13:13;;;;;;;6.38;2.90;;;;;;;29.36;37.14;101491.06;5288105;28;20326;-74
2022/07/29 10:15:45;;;;;;;7.60;2.80;;;;;;;30.05;33.75;101495.25;5286417;28;20371;-74
2022/07/29 10:18:19;;;;;;;9.30;4.00;;;;;;;29.68;33.47;101492.09;5285665;28;20029;-74
2022/07/29 10:20:51;;;;;;;5.90;2.58;;;;;;;28.31;36.31;101498.41;5285542;28;20359;-74
2022/07/29 10:23:23;;;;;;;;;;;;;;;29.16;35.77;101500.72;5285668;28;20120;-74
2022/07/29 10:25:55;;;;;;;7.70;3.67;;;;;;;27.06;38.48;101505.72;5285238;28;20270;-75
2022/07/29 10:28:27;;;;;;;7.03;3.28;;;;;;;26.49;39.61;101500.81;5285812;28;20028;-75
2022/07/29 10:31:01;;;;;;;;;;;;;;;27.42;39.60;101504.06;5286207;28;20414;-75
2022/07/29 10:33:55;;;;;;;5.55;3.00;;;;;;;26.10;41.93;101498.06;5285725;28;19915;-74
2022/07/29 10:36:39;;;;;;;10.85;3.17;;;;;;;25.92;41.06;101494.78;5285691;28;20077;-73
2022/07/29 10:39:41;;;;;;;5.43;3.00;;;;;;;26.38;41.99;101502.38;5285905;28;20054;-74
2022/07/29 10:42:21;;;;;;;5.90;3.22;;;;;;;26.49;42.31;101500.81;5285710;28;20115;-74
2022/07/29 10:44:53;;;;;;;8.35;2.95;;;;;;;26.05;39.29;101497.53;5285036;28;20506;-73
2022/07/29 10:47:26;;;;;;;12.55;3.38;;;;;;;27.15;41.09;101498.88;5284979;28;20448;-74
2022/07/29 10:50:00;;;;;;;8.50;3.70;;;;;;;28.43;36.41;101485.88;5284874;28;20029;-74
2022/07/29 10:52:49;;;;;;;6.35;3.35;;;;;;;30.46;37.42;101484.66;5285731;28;20020;-75
2022/07/29 10:55:38;;;;;;;6.90;3.60;;;;;;;31.06;31.41;101487.53;5266914;28;20037;-74
2022/07/29 10:58:20;;;;;;;10.70;3.78;;;;;;;31.06;32.60;101491.06;5285870;28;20028;-74
2022/07/29 11:00:54;;;;;;;7.35;3.45;;;;;;;31.08;30.41;101490.94;5285699;28;20042;-75
2022/07/29 11:03:41;;;;;;;8.07;3.33;;;;;;;32.46;29.92;101485.50;5284865;28;20032;-75
2022/07/29 11:06:13;;;;;;;5.97;2.85;;;;;;;33.05;29.72;101488.88;5284822;28;20028;-74
2022/07/29 11:08:44;;;;;;;6.78;2.95;;;;;;;33.47;28.43;101492.88;5284592;28;20171;-73
2022/07/29 11:11:19;;;;;;;5.97;3.40;;;;;;;33.42;26.70;101495.19;5284900;28;20351;-74
2022/07/29 11:13:54;;;;;;;5.70;2.90;;;;;;;33.27;27.68;101488.63;5283941;28;20060;-74
2022/07/29 11:16:25;;;;;;;6.32;2.50;;;;;;;33.82;27.79;101479.56;5284583;28;20117;-74
2022/07/29 11:19:12;;;;;;;6.32;2.85;;;;;;;34.57;27.86;101487.22;5266694;28;20024;-73
2022/07/29 11:21:49;;;;;;;6.18;3.35;;;;;;;34.71;28.04;101478.50;5284446;28;20028;-75
2022/07/29 11:24:28;;;;;;;10.45;3.60;;;;;;;34.30;24.89;101484.53;5284329;28;20024;-74
2022/07/29 11:27:13;;;;;;;6.13;3.10;;;;;;;34.83;25.81;101479.97;5284145;28;20017;-74
2022/07/29 11:29:54;;;;;;;6.60;2.90;;;;;;;34.53;26.54;101479.44;5284120;28;20028;-73
2022/07/29 11:32:36;;;;;;;8.73;3.33;;;;;;;34.47;25.85;101473.81;5284641;28;20089;-73
2022/07/29 11:35:12;;;;;;;4.65;2.72;;;;;;;34.32;26.55;101477.09;5284654;28;20082;-74
2022/07/29 11:37:44;;;;;;;5.80;2.40;;;;;;;34.97;27.43;101481.22;5283996;28;20024;-73
2022/07/29 11:40:17;;;;;;;6.43;2.95;;;;;;;35.74;24.90;101486.53;5284380;28;20439;-74
2022/07/29 11:42:49;;;;;;;4.93;2.30;;;;;;;34.60;28.29;101476.94;5283986;28;20111;-73
2022/07/29 11:45:23;;;;;;;7.05;2.50;;;;;;;35.09;25.15;101472.78;5283666;28;20033;-74
2022/07/29 11:47:59;;;;;;;5.60;2.85;;;;;;;35.47;25.07;101484.06;5284129;28;20056;-74
2022/07/29 11:50:36;;;;;;;5.13;2.80;;;;;;;37.17;22.81;101475.00;5283613;28;20103;-74
2022/07/29 11:53:12;;;;;;;7.38;3.50;;;;;;;37.16;23.18;101478.78;5284482;28;20024;-74
2022/07/29 11:55:43;;;;;;;8.30;2.83;;;;;;;36.40;22.50;101480.22;5283742;28;20029;-74
2022/07/29 11:58:20;;;;;;;7.57;3.25;;;;;;;36.45;23.02;101484.13;5283609;28;20490;-74
2022/07/29 12:00:53;;;;;;;4.55;3.00;;;;;;;36.72;25.11;101475.72;5284430;28;20082;-74
2022/07/29 12:03:28;;;;;;;8.15;3.15;;;;;;;36.61;22.39;101475.06;5283418;28;20054;-74